SAZN Airport Information

Runway Information
Runway 9 Length 8432 ft width 148 ft
Elevation 895 ft Threshold 0 ft Heading 90
Runway 27 Length 8432 ft Width 148 ft
Elevation 886 ft Threshold 0 ft Heading 270
Airport Frequencies
Type TWR Name NEUQUEN TW Frequency 119.3 MHZ
Airport Navaids
Type NDB Name Presidente Peron Frequency 307 KHZ
Type VOR-DME Name Neuquen Frequency 116700 KHZ
Type NDB Name Presidente Peron Frequency 332 KHZ
Airport Weather Information & NOTAM
ADDS - METARS form results

(2053 UTC 22 February 2018)
 
METAR text: SAZN 222000Z 09011KT CAVOK 23/M00 Q1016
Conditions at: SAZN (NEUQUEN AIRPORT , AR) observed 2000 UTC 22 February 2018
Temperature: 23.0°C (73°F)
Dewpoint: 0.0°C (32°F) [RH = 22%]
Pressure (altimeter): 30.00 inches Hg (1016.0 mb)
Winds: from the E (90 degrees) at 13 MPH (11 knots; 5.7 m/s)
Visibility: 6 or more miles (10+ km)
Ceiling: ceiling and visibility are OK
Clouds: unknown
Weather: no significant weather observed at this time